createdAt,value
2022-10-29T00:00:44.464Z,18.81
2022-10-29T00:01:51.110Z,18.82
2022-10-29T00:02:52.752Z,18.82
2022-10-29T00:03:55.406Z,18.81
2022-10-29T00:04:56.965Z,18.82
2022-10-29T00:06:01.725Z,18.82
2022-10-29T00:07:03.288Z,18.83
2022-10-29T00:08:05.988Z,18.82
2022-10-29T00:09:07.769Z,18.82
2022-10-29T00:10:10.796Z,18.84
2022-10-29T00:11:14.898Z,18.83
2022-10-29T00:12:18.729Z,18.84
2022-10-29T00:13:20.317Z,18.83
2022-10-29T00:14:22.798Z,18.83
2022-10-29T00:15:24.683Z,18.83
2022-10-29T00:16:28.957Z,18.83
2022-10-29T00:17:30.475Z,18.83
2022-10-29T00:18:33.011Z,18.83
2022-10-29T00:19:34.566Z,18.83
2022-10-29T00:20:37.071Z,18.82
2022-10-29T00:21:40.331Z,18.82
2022-10-29T00:22:42.830Z,18.82
2022-10-29T00:23:44.728Z,18.82
2022-10-29T00:24:47.207Z,18.82
2022-10-29T00:25:48.725Z,18.83
2022-10-29T00:26:51.240Z,18.83
2022-10-29T00:27:55.715Z,18.84
2022-10-29T00:28:58.450Z,18.82
2022-10-29T00:30:00.027Z,18.81
2022-10-29T00:31:06.271Z,18.83
2022-10-29T00:32:09.859Z,18.82
2022-10-29T00:33:12.905Z,18.81
2022-10-29T00:34:14.458Z,18.80
2022-10-29T00:35:17.103Z,18.81
2022-10-29T00:36:22.009Z,18.81
2022-10-29T00:37:24.479Z,18.80
2022-10-29T00:38:27.068Z,18.79
2022-10-29T00:39:29.767Z,18.79
2022-10-29T00:40:35.551Z,18.80
2022-10-29T00:41:38.054Z,18.79
2022-10-29T00:42:39.558Z,18.79
2022-10-29T00:43:48.753Z,18.79
2022-10-29T00:44:51.188Z,18.79
2022-10-29T00:45:57.772Z,18.79
2022-10-29T00:47:04.634Z,18.80
2022-10-29T00:48:07.341Z,18.79
2022-10-29T00:49:09.956Z,18.77
2022-10-29T00:50:15.416Z,18.77
2022-10-29T00:51:17.964Z,18.76
2022-10-29T00:52:23.147Z,18.76
2022-10-29T00:53:28.442Z,18.76
2022-10-29T00:54:32.913Z,18.73
2022-10-29T00:55:35.424Z,18.73
2022-10-29T00:56:40.571Z,18.72
2022-10-29T00:57:49.944Z,18.72
2022-10-29T00:58:53.154Z,18.71
2022-10-29T00:59:56.412Z,18.68
2022-10-29T01:00:59.224Z,18.68
2022-10-29T01:02:01.927Z,18.66
2022-10-29T01:03:03.759Z,18.65
2022-10-29T01:04:07.218Z,18.63
2022-10-29T01:05:10.236Z,18.62
2022-10-29T01:06:12.902Z,18.61
2022-10-29T01:07:14.504Z,18.60
2022-10-29T01:08:17.560Z,18.58
2022-10-29T01:09:19.098Z,18.57
2022-10-29T01:10:32.833Z,18.55
2022-10-29T01:11:44.166Z,18.54
2022-10-29T01:14:27.975Z,18.47
2022-10-29T01:15:41.570Z,18.44
2022-10-29T01:16:49.924Z,18.42
2022-10-29T01:18:05.973Z,18.40
2022-10-29T01:19:15.358Z,18.38
2022-10-29T01:20:42.203Z,18.38
2022-10-29T01:21:45.978Z,18.36
2022-10-29T01:22:59.654Z,18.36
2022-10-29T01:24:27.808Z,18.34
2022-10-29T01:25:51.093Z,18.33
2022-10-29T01:27:29.304Z,18.32
2022-10-29T01:28:42.584Z,18.30
2022-10-29T01:30:01.489Z,18.28
2022-10-29T01:31:19.603Z,18.25
2022-10-29T01:32:30.955Z,18.23
2022-10-29T01:33:39.630Z,18.21
2022-10-29T01:34:45.958Z,18.19
2022-10-29T01:35:58.327Z,18.19
2022-10-29T01:37:07.181Z,18.17
2022-10-29T01:38:20.835Z,18.16
2022-10-29T01:39:35.741Z,18.14
2022-10-29T01:40:44.343Z,18.12
2022-10-29T01:41:53.936Z,18.12
2022-10-29T01:43:05.106Z,18.10
2022-10-29T01:44:17.312Z,18.09
2022-10-29T01:45:24.415Z,18.09
2022-10-29T01:46:34.147Z,18.08
2022-10-29T01:47:41.592Z,18.07
2022-10-29T01:48:46.158Z,18.08
2022-10-29T01:49:52.528Z,18.08
2022-10-29T01:50:58.823Z,18.08
2022-10-29T01:52:04.264Z,18.08
2022-10-29T01:53:06.772Z,18.08
2022-10-29T01:54:12.057Z,18.08
2022-10-29T01:55:16.563Z,18.08
2022-10-29T01:56:19.268Z,18.08
2022-10-29T01:57:30.439Z,18.09
2022-10-29T01:58:34.293Z,18.09
2022-10-29T01:59:51.017Z,18.09
2022-10-29T02:01:03.237Z,18.09
2022-10-29T02:02:15.751Z,18.09
2022-10-29T02:03:30.955Z,18.09
2022-10-29T02:04:47.666Z,18.08
2022-10-29T02:05:58.154Z,18.09
2022-10-29T02:07:04.016Z,18.09
2022-10-29T02:08:18.952Z,18.08
2022-10-29T02:09:26.889Z,18.06
2022-10-29T02:10:34.501Z,18.07
2022-10-29T02:11:48.852Z,18.06
2022-10-29T02:12:53.862Z,18.05
2022-10-29T02:14:02.329Z,18.04
2022-10-29T02:15:09.120Z,18.02
2022-10-29T02:16:11.989Z,18.01
2022-10-29T02:17:15.826Z,18.00
2022-10-29T02:18:17.740Z,17.98
2022-10-29T02:19:20.469Z,17.98
2022-10-29T02:20:22.026Z,17.96
2022-10-29T02:21:24.654Z,17.96
2022-10-29T02:22:26.160Z,17.94
2022-10-29T02:23:28.977Z,17.93
2022-10-29T02:24:30.501Z,17.92
2022-10-29T02:25:33.103Z,17.91
2022-10-29T02:26:34.658Z,17.90
2022-10-29T02:27:37.194Z,17.88
2022-10-29T02:28:38.931Z,17.86
2022-10-29T02:29:41.462Z,17.85
2022-10-29T02:30:42.951Z,17.83
2022-10-29T02:31:45.498Z,17.82
2022-10-29T02:32:48.377Z,17.81
2022-10-29T02:33:50.957Z,17.78
2022-10-29T02:34:52.508Z,17.77
2022-10-29T02:35:54.984Z,17.76
2022-10-29T02:36:56.498Z,17.74
2022-10-29T02:37:59.000Z,17.74
2022-10-29T02:39:00.807Z,17.74
2022-10-29T02:40:06.676Z,17.73
2022-10-29T02:41:09.166Z,17.72
2022-10-29T02:42:10.980Z,17.71
2022-10-29T02:43:13.517Z,17.71
2022-10-29T02:44:15.090Z,17.70
2022-10-29T02:45:17.747Z,17.70
2022-10-29T02:46:28.456Z,17.69
2022-10-29T02:47:30.942Z,17.68
2022-10-29T02:48:33.803Z,17.67
2022-10-29T02:49:36.533Z,17.67
2022-10-29T02:50:38.047Z,17.66
2022-10-29T02:51:40.545Z,17.65
2022-10-29T02:52:42.068Z,17.64
2022-10-29T02:53:45.323Z,17.63
2022-10-29T02:54:46.892Z,17.62
2022-10-29T02:55:49.348Z,17.62
2022-10-29T02:56:50.849Z,17.61
2022-10-29T02:57:53.584Z,17.60
2022-10-29T02:58:55.454Z,17.60
2022-10-29T02:59:57.978Z,17.60
2022-10-29T03:00:59.533Z,17.60
2022-10-29T03:02:02.212Z,17.61
2022-10-29T03:03:04.096Z,17.61
2022-10-29T03:04:08.002Z,17.62
2022-10-29T03:05:10.331Z,17.61
2022-10-29T03:06:13.904Z,17.61
2022-10-29T03:07:15.402Z,17.61
2022-10-29T03:08:18.091Z,17.61
2022-10-29T03:09:19.648Z,17.63
2022-10-29T03:10:22.164Z,17.63
2022-10-29T03:11:23.774Z,17.63
2022-10-29T03:12:26.258Z,17.64
2022-10-29T03:13:27.855Z,17.64
2022-10-29T03:14:30.388Z,17.65
2022-10-29T03:15:31.911Z,17.65
2022-10-29T03:16:34.537Z,17.66
2022-10-29T03:17:36.023Z,17.67
2022-10-29T03:18:38.743Z,17.66
2022-10-29T03:19:41.623Z,17.66
2022-10-29T03:20:45.341Z,17.66
2022-10-29T03:21:46.866Z,17.67
2022-10-29T03:22:49.378Z,17.67
2022-10-29T03:23:50.919Z,17.68
2022-10-29T03:24:53.406Z,17.68
2022-10-29T03:25:56.558Z,17.69
2022-10-29T03:26:59.068Z,17.67
2022-10-29T03:28:00.662Z,17.68
2022-10-29T03:29:03.520Z,17.68
2022-10-29T03:30:06.244Z,17.69
2022-10-29T03:31:09.088Z,17.69
2022-10-29T03:32:19.786Z,17.68
2022-10-29T03:33:22.491Z,17.68
2022-10-29T03:34:23.992Z,17.68
2022-10-29T03:35:27.897Z,17.69
2022-10-29T03:36:30.537Z,17.70
2022-10-29T03:37:32.022Z,17.69
2022-10-29T03:38:35.030Z,17.69
2022-10-29T03:39:36.547Z,17.69
2022-10-29T03:40:39.049Z,17.71
2022-10-29T03:41:41.571Z,17.71
2022-10-29T03:42:43.081Z,17.70
2022-10-29T03:43:45.629Z,17.72
2022-10-29T03:44:47.226Z,17.73
2022-10-29T03:45:52.809Z,17.73
2022-10-29T03:46:54.386Z,17.72
2022-10-29T03:47:57.579Z,17.72
2022-10-29T03:48:59.575Z,17.72
2022-10-29T03:50:02.149Z,17.73
2022-10-29T03:51:06.692Z,17.74
2022-10-29T03:52:09.285Z,17.73
2022-10-29T03:53:11.078Z,17.73
2022-10-29T03:54:13.547Z,17.71
2022-10-29T03:55:15.290Z,17.70
2022-10-29T03:56:17.792Z,17.70
2022-10-29T03:57:19.387Z,17.69
2022-10-29T03:58:22.859Z,17.69
2022-10-29T03:59:24.771Z,17.71
2022-10-29T04:00:27.261Z,17.70
2022-10-29T04:01:28.869Z,17.69
2022-10-29T04:02:31.802Z,17.69
2022-10-29T04:03:35.421Z,17.70
2022-10-29T04:04:37.851Z,17.69
2022-10-29T04:05:39.340Z,17.68
2022-10-29T04:06:43.324Z,17.69
2022-10-29T04:07:44.845Z,17.69
2022-10-29T04:08:47.369Z,17.69
2022-10-29T04:09:48.934Z,17.69
2022-10-29T04:10:52.144Z,17.67
2022-10-29T04:11:53.854Z,17.68
2022-10-29T04:12:56.795Z,17.67
2022-10-29T04:13:58.568Z,17.66
2022-10-29T04:15:01.127Z,17.65
2022-10-29T04:16:02.904Z,17.66
2022-10-29T04:17:05.407Z,17.66
2022-10-29T04:18:09.901Z,17.66
2022-10-29T04:19:12.377Z,17.66
2022-10-29T04:20:31.608Z,17.67
2022-10-29T04:28:17.521Z,17.63
2022-10-29T04:28:44.359Z,17.61
2022-10-29T04:29:46.023Z,17.61
2022-10-29T04:30:51.685Z,17.63
2022-10-29T04:31:53.214Z,17.62
2022-10-29T04:32:58.322Z,17.64
2022-10-29T04:34:01.006Z,17.64
2022-10-29T04:35:03.639Z,17.64
2022-10-29T04:36:05.925Z,17.65
2022-10-29T04:37:08.440Z,17.65
2022-10-29T04:38:12.334Z,17.65
2022-10-29T04:39:18.208Z,17.65
2022-10-29T04:40:22.918Z,17.65
2022-10-29T04:41:25.553Z,17.65
2022-10-29T04:42:27.102Z,17.66
2022-10-29T04:43:30.197Z,17.65
2022-10-29T04:44:31.706Z,17.65
2022-10-29T04:45:34.455Z,17.64
2022-10-29T04:46:36.246Z,17.64
2022-10-29T04:47:38.706Z,17.64
2022-10-29T04:48:40.369Z,17.63
2022-10-29T04:49:42.901Z,17.63
2022-10-29T04:50:44.574Z,17.63
2022-10-29T04:51:47.108Z,17.62
2022-10-29T04:52:48.649Z,17.63
2022-10-29T04:53:53.190Z,17.63
2022-10-29T04:54:54.738Z,17.63
2022-10-29T04:56:01.194Z,17.64
2022-10-29T04:57:02.740Z,17.64
2022-10-29T04:58:05.471Z,17.65
2022-10-29T04:59:07.050Z,17.66
2022-10-29T05:00:16.218Z,17.67
2022-10-29T05:01:21.280Z,17.66
2022-10-29T05:02:23.941Z,17.66
2022-10-29T05:03:25.474Z,17.66
2022-10-29T05:04:29.373Z,17.67
2022-10-29T05:05:30.884Z,17.66
2022-10-29T05:06:33.402Z,17.66
2022-10-29T05:07:37.597Z,17.66
2022-10-29T05:08:40.117Z,17.65
2022-10-29T05:09:42.922Z,17.65
2022-10-29T05:10:45.428Z,17.65
2022-10-29T05:11:47.102Z,17.63
2022-10-29T05:12:49.596Z,17.63
2022-10-29T05:13:51.166Z,17.61
2022-10-29T05:14:53.663Z,17.60
2022-10-29T05:15:55.444Z,17.60
2022-10-29T05:16:57.975Z,17.57
2022-10-29T05:17:59.955Z,17.55
2022-10-29T05:19:02.715Z,17.54
2022-10-29T05:20:05.292Z,17.53
2022-10-29T05:21:07.746Z,17.52
2022-10-29T05:22:09.597Z,17.51
2022-10-29T05:23:12.985Z,17.51
2022-10-29T05:24:15.024Z,17.51
2022-10-29T05:25:18.875Z,17.50
2022-10-29T05:26:20.435Z,17.50
2022-10-29T05:27:22.962Z,17.52
2022-10-29T05:28:24.543Z,17.52
2022-10-29T05:29:27.025Z,17.53
2022-10-29T05:30:28.596Z,17.53
2022-10-29T05:31:31.269Z,17.55
2022-10-29T05:32:32.958Z,17.56
2022-10-29T05:33:35.535Z,17.56
2022-10-29T05:34:39.509Z,17.56
2022-10-29T05:35:45.148Z,17.55
2022-10-29T05:36:46.648Z,17.56
2022-10-29T05:37:52.692Z,17.56
2022-10-29T05:38:54.233Z,17.56
2022-10-29T05:39:56.704Z,17.55
2022-10-29T05:41:01.004Z,17.55
2022-10-29T05:42:02.518Z,17.57
2022-10-29T05:43:05.313Z,17.56
2022-10-29T05:44:07.207Z,17.57
2022-10-29T05:45:10.984Z,17.58
2022-10-29T05:46:13.559Z,17.57
2022-10-29T05:47:15.076Z,17.58
2022-10-29T05:48:17.639Z,17.58
2022-10-29T05:49:19.212Z,17.61
2022-10-29T05:50:21.995Z,17.63
2022-10-29T05:51:24.564Z,17.62
2022-10-29T05:52:26.068Z,17.65
2022-10-29T05:53:28.621Z,17.65
2022-10-29T05:54:30.179Z,17.65
2022-10-29T05:55:35.262Z,17.65
2022-10-29T05:56:38.106Z,17.65
2022-10-29T05:57:40.581Z,17.66
2022-10-29T05:58:43.070Z,17.66
2022-10-29T05:59:44.570Z,17.66
2022-10-29T06:00:47.145Z,17.65
2022-10-29T06:01:48.780Z,17.65
2022-10-29T06:02:51.483Z,17.64
2022-10-29T06:03:54.022Z,17.63
2022-10-29T06:04:55.515Z,17.63
2022-10-29T06:05:57.984Z,17.63
2022-10-29T06:07:00.804Z,17.63
2022-10-29T06:08:03.265Z,17.63
2022-10-29T06:09:04.957Z,17.63
2022-10-29T06:10:08.710Z,17.63
2022-10-29T06:11:10.226Z,17.64
2022-10-29T06:12:14.083Z,17.64
2022-10-29T06:13:17.964Z,17.65
2022-10-29T06:14:20.514Z,17.65
2022-10-29T06:15:22.823Z,17.66
2022-10-29T06:16:25.354Z,17.66
2022-10-29T06:17:27.348Z,17.67
2022-10-29T06:18:30.529Z,17.68
2022-10-29T06:19:32.277Z,17.68
2022-10-29T06:20:34.804Z,17.68
2022-10-29T06:21:37.337Z,17.69
2022-10-29T06:22:39.073Z,17.70
2022-10-29T06:23:41.895Z,17.70
2022-10-29T06:24:43.397Z,17.70
2022-10-29T06:25:45.869Z,17.72
2022-10-29T06:26:47.413Z,17.72
2022-10-29T06:27:58.701Z,17.72
2022-10-29T06:29:01.559Z,17.72
2022-10-29T06:30:03.863Z,17.73
2022-10-29T06:31:06.587Z,17.73
2022-10-29T06:32:08.071Z,17.72
2022-10-29T06:33:10.595Z,17.73
2022-10-29T06:34:13.437Z,17.74
2022-10-29T06:35:16.025Z,17.74
2022-10-29T06:36:17.588Z,17.73
2022-10-29T06:37:33.119Z,17.73
2022-10-29T06:38:34.684Z,17.72
2022-10-29T06:39:37.220Z,17.73
2022-10-29T06:40:38.959Z,17.73
2022-10-29T06:41:41.547Z,17.74
2022-10-29T06:42:43.262Z,17.73
2022-10-29T06:43:47.192Z,17.74
2022-10-29T06:44:48.669Z,17.74
2022-10-29T06:45:51.209Z,17.75
2022-10-29T06:46:52.830Z,17.75
2022-10-29T06:47:55.844Z,17.74
2022-10-29T06:48:58.594Z,17.75
2022-10-29T06:50:00.153Z,17.76
2022-10-29T06:51:02.600Z,17.77
2022-10-29T06:52:04.544Z,17.77
2022-10-29T06:53:08.719Z,17.77
2022-10-29T06:54:10.263Z,17.78
2022-10-29T06:55:12.710Z,17.78
2022-10-29T06:56:14.208Z,17.79
2022-10-29T06:57:16.702Z,17.79
2022-10-29T06:58:20.165Z,17.80
2022-10-29T06:59:24.423Z,17.80
2022-10-29T07:00:26.183Z,17.81
2022-10-29T07:01:31.746Z,17.82
2022-10-29T07:02:34.143Z,17.82
2022-10-29T07:03:36.874Z,17.83
2022-10-29T07:04:38.360Z,17.84
2022-10-29T07:05:40.889Z,17.84
2022-10-29T07:06:42.475Z,17.84
2022-10-29T07:07:44.982Z,17.86
2022-10-29T07:08:46.591Z,17.86
2022-10-29T07:09:49.047Z,17.87
2022-10-29T07:10:51.052Z,17.90
2022-10-29T07:11:53.705Z,17.89
2022-10-29T07:12:55.667Z,17.91
2022-10-29T07:13:58.595Z,17.91
2022-10-29T07:15:01.503Z,17.92
2022-10-29T07:16:04.153Z,17.93
2022-10-29T07:17:06.009Z,17.92
2022-10-29T07:18:09.645Z,17.92
2022-10-29T07:19:12.133Z,17.93
2022-10-29T07:20:13.873Z,17.93
2022-10-29T07:21:16.530Z,17.92
2022-10-29T07:22:18.026Z,17.92
2022-10-29T07:23:20.801Z,17.92
2022-10-29T07:24:22.399Z,17.93
2022-10-29T07:25:25.281Z,17.93
2022-10-29T07:26:27.738Z,17.95
2022-10-29T07:27:29.321Z,17.98
2022-10-29T07:28:32.023Z,17.98
2022-10-29T07:29:33.796Z,18.01
2022-10-29T07:30:37.912Z,18.02
2022-10-29T07:31:39.501Z,18.04
2022-10-29T07:32:42.141Z,18.05
2022-10-29T07:33:43.719Z,18.06
2022-10-29T07:34:46.213Z,18.09
2022-10-29T07:35:50.430Z,18.11
2022-10-29T07:36:52.914Z,18.11
2022-10-29T07:37:59.770Z,18.16
2022-10-29T07:39:04.915Z,18.17
2022-10-29T07:40:07.997Z,18.19
2022-10-29T07:41:10.727Z,18.22
2022-10-29T07:42:12.243Z,18.23
2022-10-29T07:43:14.748Z,18.27
2022-10-29T07:44:16.882Z,18.29
2022-10-29T07:45:19.423Z,18.30
2022-10-29T07:46:22.253Z,18.33
2022-10-29T07:47:24.850Z,18.33
2022-10-29T07:48:26.398Z,18.35
2022-10-29T07:49:28.827Z,18.37
2022-10-29T07:50:31.482Z,18.38
2022-10-29T07:51:34.009Z,18.39
2022-10-29T07:52:35.584Z,18.39
2022-10-29T07:53:38.058Z,18.39
2022-10-29T07:54:39.565Z,18.39
2022-10-29T07:55:42.383Z,18.39
2022-10-29T07:56:46.844Z,18.38
2022-10-29T07:57:58.837Z,18.39
2022-10-29T07:59:00.543Z,18.37
2022-10-29T08:00:03.389Z,18.37
2022-10-29T08:01:07.234Z,18.35
2022-10-29T08:02:11.859Z,18.35
2022-10-29T08:03:13.976Z,18.33
2022-10-29T08:04:16.515Z,18.32
2022-10-29T08:05:18.077Z,18.32
2022-10-29T08:06:20.895Z,18.32
2022-10-29T08:07:22.448Z,18.32
2022-10-29T08:08:25.465Z,18.32
2022-10-29T08:09:27.112Z,18.33
2022-10-29T08:10:30.777Z,18.35
2022-10-29T08:11:33.194Z,18.35
2022-10-29T08:12:35.723Z,18.37
2022-10-29T08:13:37.263Z,18.39
2022-10-29T08:14:39.785Z,18.39
2022-10-29T08:15:41.306Z,18.42
2022-10-29T08:16:43.803Z,18.45
2022-10-29T08:17:47.249Z,18.48
2022-10-29T08:18:49.810Z,18.51
2022-10-29T08:19:51.347Z,18.55
2022-10-29T08:20:53.802Z,18.59
2022-10-29T08:21:55.514Z,18.63
2022-10-29T08:23:01.267Z,18.65
2022-10-29T08:24:03.345Z,18.67
2022-10-29T08:25:06.544Z,18.67
2022-10-29T08:26:09.036Z,18.68
2022-10-29T08:27:10.564Z,18.71
2022-10-29T08:28:14.989Z,18.72
2022-10-29T08:29:16.688Z,18.72
2022-10-29T08:30:19.283Z,18.75
2022-10-29T08:31:20.896Z,18.76
2022-10-29T08:32:23.399Z,18.77
2022-10-29T08:33:27.655Z,18.78
2022-10-29T08:34:29.182Z,18.78
2022-10-29T08:35:31.746Z,18.79
2022-10-29T08:36:33.371Z,18.80
2022-10-29T08:37:35.939Z,18.80
2022-10-29T08:38:37.486Z,18.81
2022-10-29T08:39:39.994Z,18.82
2022-10-29T08:40:56.127Z,18.82
2022-10-29T08:42:11.004Z,18.81
2022-10-29T08:43:47.617Z,18.81
2022-10-29T08:45:11.771Z,18.80
2022-10-29T08:46:19.258Z,18.82
2022-10-29T08:47:24.106Z,18.83
2022-10-29T08:48:37.589Z,18.84
2022-10-29T08:49:47.266Z,18.86
2022-10-29T08:50:53.383Z,18.87
2022-10-29T08:52:01.117Z,18.90
2022-10-29T08:53:22.386Z,18.93
2022-10-29T08:54:31.502Z,18.96
2022-10-29T08:55:36.322Z,18.98
2022-10-29T08:56:41.151Z,19.02
2022-10-29T08:57:56.415Z,19.05
2022-10-29T08:59:03.419Z,19.10
2022-10-29T09:01:21.604Z,19.18
2022-10-29T09:02:24.337Z,19.21
2022-10-29T09:03:28.658Z,19.25
2022-10-29T09:04:37.252Z,19.29
2022-10-29T09:05:49.642Z,19.31
2022-10-29T09:07:16.359Z,19.32
2022-10-29T09:08:32.038Z,19.34
2022-10-29T09:09:39.181Z,19.36
2022-10-29T09:10:48.094Z,19.37
2022-10-29T09:12:04.987Z,19.40
2022-10-29T09:13:23.615Z,19.42
2022-10-29T09:14:43.910Z,19.44
2022-10-29T09:16:01.331Z,19.46
2022-10-29T09:17:15.770Z,19.49
2022-10-29T09:18:33.477Z,19.51
2022-10-29T09:19:50.245Z,19.51
2022-10-29T09:20:59.002Z,19.55
2022-10-29T09:22:13.223Z,19.57
2022-10-29T09:23:25.532Z,19.63
2022-10-29T09:24:34.963Z,19.67
2022-10-29T09:25:46.639Z,19.70
2022-10-29T09:26:58.641Z,19.72
2022-10-29T09:28:17.707Z,19.75
2022-10-29T09:29:34.433Z,19.77
2022-10-29T09:30:43.985Z,19.80
2022-10-29T09:31:49.916Z,19.83
2022-10-29T09:32:59.960Z,19.86
2022-10-29T09:34:05.965Z,19.89
2022-10-29T09:35:14.718Z,19.88
2022-10-29T09:36:18.446Z,19.88
2022-10-29T09:37:25.728Z,19.91
2022-10-29T09:38:32.723Z,19.91
2022-10-29T09:39:39.922Z,19.92
2022-10-29T09:40:42.960Z,19.94
2022-10-29T09:41:45.940Z,19.99
2022-10-29T09:42:48.086Z,20.01
2022-10-29T09:43:56.909Z,20.06
2022-10-29T09:45:02.591Z,20.11
2022-10-29T09:46:12.174Z,20.14
2022-10-29T09:47:25.450Z,20.18
2022-10-29T09:48:33.801Z,20.23
2022-10-29T09:49:49.911Z,20.26
2022-10-29T09:51:02.685Z,20.27
2022-10-29T09:52:09.955Z,20.30
2022-10-29T09:53:12.588Z,20.29
2022-10-29T09:54:14.223Z,20.31
2022-10-29T09:55:22.213Z,20.31
2022-10-29T09:56:23.822Z,20.32
2022-10-29T09:57:29.294Z,20.33
2022-10-29T09:58:30.841Z,20.32
2022-10-29T09:59:37.628Z,20.32
2022-10-29T10:00:40.167Z,20.31
2022-10-29T10:01:41.790Z,20.30
2022-10-29T10:02:46.640Z,20.30
2022-10-29T10:03:55.059Z,20.29
2022-10-29T10:05:01.849Z,20.27
2022-10-29T10:06:08.010Z,20.25
2022-10-29T10:07:11.721Z,20.23
2022-10-29T10:08:15.409Z,20.22
2022-10-29T10:09:16.927Z,20.19
2022-10-29T10:10:23.872Z,20.18
2022-10-29T10:11:31.036Z,20.17
2022-10-29T10:12:46.750Z,20.15
2022-10-29T10:13:53.717Z,20.12
2022-10-29T10:15:16.976Z,20.09
2022-10-29T10:16:25.233Z,20.09
2022-10-29T10:17:26.798Z,20.07
2022-10-29T10:18:41.594Z,20.07
2022-10-29T10:19:45.570Z,20.06
2022-10-29T10:21:03.114Z,20.07
2022-10-29T10:22:16.447Z,20.08
2022-10-29T10:23:27.302Z,20.08
2022-10-29T10:24:31.532Z,20.08
2022-10-29T10:25:36.731Z,20.07
2022-10-29T10:26:43.006Z,20.08
2022-10-29T10:27:44.582Z,20.09
2022-10-29T10:29:03.959Z,20.10
2022-10-29T10:30:15.762Z,20.11
2022-10-29T10:31:18.294Z,20.14
2022-10-29T10:32:19.810Z,20.17
2022-10-29T10:33:27.022Z,20.20
2022-10-29T10:34:38.866Z,20.23
2022-10-29T10:35:41.129Z,20.23
2022-10-29T10:36:45.531Z,20.25
2022-10-29T10:37:48.535Z,20.26
2022-10-29T10:38:54.009Z,20.28
2022-10-29T10:40:00.489Z,20.30
2022-10-29T10:41:08.258Z,20.33
2022-10-29T10:42:17.055Z,20.35
2022-10-29T10:43:23.067Z,20.39
2022-10-29T10:44:25.929Z,20.42
2022-10-29T10:45:34.443Z,20.45
2022-10-29T10:46:41.718Z,20.48
2022-10-29T10:47:47.894Z,20.50
2022-10-29T10:48:59.494Z,20.54
2022-10-29T10:50:11.894Z,20.56
2022-10-29T10:51:25.178Z,20.61
2022-10-29T10:52:32.191Z,20.65
2022-10-29T10:53:35.371Z,20.69
2022-10-29T10:54:41.852Z,20.72
2022-10-29T10:55:47.963Z,20.76
2022-10-29T10:56:58.508Z,20.77
2022-10-29T10:58:11.259Z,20.80
2022-10-29T10:59:16.347Z,20.82
2022-10-29T11:00:20.791Z,20.82
2022-10-29T11:01:28.276Z,20.81
2022-10-29T11:02:40.219Z,20.81
2022-10-29T11:03:45.342Z,20.80
2022-10-29T11:04:50.881Z,20.77
2022-10-29T11:05:59.485Z,20.76
2022-10-29T11:07:07.087Z,20.75
2022-10-29T11:08:17.626Z,20.75
2022-10-29T11:09:25.380Z,20.74
2022-10-29T11:10:34.990Z,20.73
2022-10-29T11:11:40.336Z,20.70
2022-10-29T11:12:46.430Z,20.69
2022-10-29T11:13:50.286Z,20.69
2022-10-29T11:14:58.364Z,20.68
2022-10-29T11:16:08.210Z,20.68
2022-10-29T11:17:25.994Z,20.66
2022-10-29T11:18:34.663Z,20.66
2022-10-29T11:19:42.988Z,20.66
2022-10-29T11:20:51.014Z,20.66
2022-10-29T11:22:03.814Z,20.66
2022-10-29T11:23:24.547Z,20.65
2022-10-29T11:24:37.814Z,20.65
2022-10-29T11:25:43.676Z,20.65
2022-10-29T11:26:49.798Z,20.67
2022-10-29T11:27:56.969Z,20.67
2022-10-29T11:29:05.596Z,20.67
2022-10-29T11:30:12.082Z,20.67
2022-10-29T11:31:23.994Z,20.68
2022-10-29T11:32:33.367Z,20.69
2022-10-29T11:33:44.448Z,20.71
2022-10-29T11:34:54.485Z,20.74
2022-10-29T11:36:02.656Z,20.76
2022-10-29T11:37:14.923Z,20.76
2022-10-29T11:38:21.013Z,20.75
2022-10-29T11:39:32.550Z,20.75
2022-10-29T11:40:41.402Z,20.77
2022-10-29T11:41:51.202Z,20.76
2022-10-29T11:42:53.853Z,20.76
2022-10-29T11:43:55.527Z,20.77
2022-10-29T11:44:59.968Z,20.78
2022-10-29T11:46:08.780Z,20.81
2022-10-29T11:47:28.035Z,20.82
2022-10-29T11:48:46.169Z,20.80
2022-10-29T11:50:05.409Z,20.79
2022-10-29T11:51:19.895Z,20.81
2022-10-29T11:52:35.528Z,20.82
2022-10-29T11:53:56.695Z,20.83
2022-10-29T11:55:16.206Z,20.83
2022-10-29T11:56:30.753Z,20.84
2022-10-29T11:57:40.472Z,20.85
2022-10-29T11:58:49.287Z,20.87
2022-10-29T12:00:05.646Z,20.88
2022-10-29T12:01:20.376Z,20.87
2022-10-29T12:02:35.227Z,20.89
2022-10-29T12:03:54.545Z,20.89
2022-10-29T12:05:01.967Z,20.91
2022-10-29T12:06:16.447Z,20.93
2022-10-29T12:07:30.831Z,20.93
2022-10-29T12:08:48.851Z,20.92
2022-10-29T12:10:13.393Z,20.91
2022-10-29T12:11:26.011Z,20.90
2022-10-29T12:12:35.882Z,20.90
2022-10-29T12:13:55.222Z,20.90
2022-10-29T12:15:03.049Z,20.91
2022-10-29T12:16:21.239Z,20.91
2022-10-29T12:17:32.601Z,20.92
2022-10-29T12:18:44.348Z,20.93
2022-10-29T12:19:55.634Z,20.94
2022-10-29T12:21:06.026Z,20.96
2022-10-29T12:22:21.823Z,20.96
2022-10-29T12:23:34.778Z,21.00
2022-10-29T12:24:50.086Z,21.01
2022-10-29T12:26:02.479Z,21.01
2022-10-29T12:27:14.362Z,21.02
2022-10-29T12:28:23.997Z,21.03
2022-10-29T12:29:33.842Z,21.03
2022-10-29T12:30:43.459Z,21.04
2022-10-29T12:31:55.834Z,21.04
2022-10-29T12:33:05.654Z,21.06
2022-10-29T12:34:17.476Z,21.06
2022-10-29T12:35:28.989Z,21.06
2022-10-29T12:36:38.957Z,21.07
2022-10-29T12:37:47.300Z,21.09
2022-10-29T12:38:52.727Z,21.09
2022-10-29T12:40:01.031Z,21.10
2022-10-29T12:41:06.315Z,21.09
2022-10-29T12:42:16.199Z,21.10
2022-10-29T12:43:23.433Z,21.11
2022-10-29T12:44:31.937Z,21.11
2022-10-29T12:46:06.525Z,21.11
2022-10-29T12:47:12.258Z,21.08
2022-10-29T12:48:18.751Z,21.09
2022-10-29T12:49:31.404Z,21.09
2022-10-29T12:50:44.895Z,21.10
2022-10-29T12:51:54.370Z,21.11
2022-10-29T12:53:04.441Z,21.14
2022-10-29T12:54:21.462Z,21.17
2022-10-29T12:55:24.010Z,21.20
2022-10-29T12:56:29.744Z,21.22
2022-10-29T12:57:34.578Z,21.25
2022-10-29T12:58:48.834Z,21.28
2022-10-29T12:59:51.353Z,21.30
2022-10-29T13:00:53.018Z,21.34
2022-10-29T13:02:12.313Z,21.38
2022-10-29T13:03:48.790Z,21.42
2022-10-29T13:05:13.850Z,21.45
2022-10-29T13:06:45.463Z,21.50
2022-10-29T13:08:27.835Z,21.54
2022-10-29T13:09:33.376Z,21.58
2022-10-29T13:10:53.772Z,21.60
2022-10-29T13:11:59.385Z,21.63
2022-10-29T13:13:05.386Z,21.65
2022-10-29T13:14:07.930Z,21.66
2022-10-29T13:15:15.294Z,21.67
2022-10-29T13:16:22.197Z,21.66
2022-10-29T13:17:31.704Z,21.64
2022-10-29T13:18:44.651Z,21.63
2022-10-29T13:19:52.063Z,21.61
2022-10-29T13:20:55.014Z,21.62
2022-10-29T13:22:05.148Z,21.63
2022-10-29T13:23:32.881Z,21.60
2022-10-29T13:24:34.514Z,21.60
2022-10-29T13:25:48.583Z,21.61
2022-10-29T13:27:01.610Z,21.60
2022-10-29T13:28:52.958Z,21.59
2022-10-29T13:30:22.484Z,21.55
2022-10-29T13:31:54.854Z,21.52
2022-10-29T13:32:56.879Z,21.53
2022-10-29T13:33:59.588Z,21.53
2022-10-29T13:35:03.241Z,21.57
2022-10-29T13:36:07.291Z,21.60
2022-10-29T13:37:55.830Z,21.59
2022-10-29T13:39:07.322Z,21.63
2022-10-29T13:40:43.663Z,21.66
2022-10-29T13:41:51.303Z,21.68
2022-10-29T13:42:58.301Z,21.70
2022-10-29T13:44:04.856Z,21.72
2022-10-29T13:45:11.607Z,21.73
2022-10-29T13:46:30.050Z,21.73
2022-10-29T13:47:32.043Z,21.75
2022-10-29T13:48:37.175Z,21.77
2022-10-29T13:49:44.153Z,21.77
2022-10-29T13:50:49.867Z,21.78
2022-10-29T13:52:00.074Z,21.80
2022-10-29T13:53:10.731Z,21.80
2022-10-29T13:54:23.959Z,21.80
2022-10-29T13:55:27.596Z,21.81
2022-10-29T13:56:35.706Z,21.80
2022-10-29T13:57:44.032Z,21.80
2022-10-29T13:58:59.611Z,21.80
2022-10-29T14:00:07.273Z,21.78
2022-10-29T14:01:17.256Z,21.78
2022-10-29T14:02:31.149Z,21.75
2022-10-29T14:03:42.611Z,21.74
2022-10-29T14:04:49.649Z,21.73
2022-10-29T14:05:57.491Z,21.71
2022-10-29T14:07:00.574Z,21.71
2022-10-29T14:08:12.787Z,21.69
2022-10-29T14:09:21.032Z,21.68
2022-10-29T14:10:27.223Z,21.68
2022-10-29T14:11:38.164Z,21.67
2022-10-29T14:12:42.764Z,21.65
2022-10-29T14:13:49.067Z,21.64
2022-10-29T14:14:59.306Z,21.62
2022-10-29T14:16:02.682Z,21.62
2022-10-29T14:17:13.863Z,21.60
2022-10-29T14:18:19.869Z,21.58
2022-10-29T14:19:21.681Z,21.57
2022-10-29T14:20:27.041Z,21.56
2022-10-29T14:21:36.453Z,21.54
2022-10-29T14:22:40.941Z,21.53